Time;durP1;ratioP1;P1;durP2;ratioP2;P2;SDS_P1;SDS_P2;PMS_P1;PMS_P2;Temp;Humidity;BMP_temperature;BMP_pressure;BME280_temperature;BME280_humidity;BME280_pressure;Samples;Min_cycle;Max_cycle;Signal;HPM_P1;HPM_P2
2021/01/23 00:01:19;;;;;;;7.03;5.90;;;4.40;99.90;;;5.32;100.00;98342.66;5032531;28;20260;-64
2021/01/23 00:03:47;;;;;;;6.60;5.90;;;4.30;99.90;;;5.39;100.00;98342.56;5032361;28;20201;-64
2021/01/23 00:06:15;;;;;;;6.93;6.23;;;4.40;99.90;;;5.39;100.00;98348.72;5031814;28;20664;-64
2021/01/23 00:08:42;;;;;;;7.27;6.20;;;4.40;99.90;;;5.57;99.56;98350.44;5032263;28;20209;-64
2021/01/23 00:11:09;;;;;;;7.13;6.40;;;4.40;99.90;;;5.52;100.00;98355.66;5032458;28;20207;-63
2021/01/23 00:13:36;;;;;;;7.50;6.43;;;4.40;99.90;;;5.36;100.00;98356.38;5032188;28;20240;-63
2021/01/23 00:16:05;;;;;;;7.00;6.23;;;4.30;99.90;;;5.36;100.00;98359.81;5032232;28;20671;-64
2021/01/23 00:18:32;;;;;;;7.73;6.43;;;4.30;99.90;;;5.23;100.00;98359.22;5032137;28;20245;-63
2021/01/23 00:21:00;;;;;;;8.97;7.60;;;4.30;99.90;;;5.47;99.50;98358.22;5031449;28;20705;-64
2021/01/23 00:23:28;;;;;;;8.63;7.60;;;4.40;99.90;;;5.42;99.97;98358.09;5032230;28;20205;-64
2021/01/23 00:25:56;;;;;;;9.17;7.40;;;4.30;99.90;;;5.30;100.00;98350.09;5032213;28;20234;-64
2021/01/23 00:28:23;;;;;;;9.67;7.40;;;4.30;99.90;;;5.40;100.00;98347.66;5032244;28;20208;-63
2021/01/23 00:30:50;;;;;;;9.13;7.47;;;4.40;99.90;;;5.31;100.00;98349.03;5032229;28;20212;-63
2021/01/23 00:33:18;;;;;;;9.03;8.00;;;4.30;99.90;;;5.38;100.00;98346.28;5038796;28;20211;-64
2021/01/23 00:35:45;;;;;;;9.90;8.17;;;4.40;99.90;;;5.28;100.00;98346.00;5051462;28;20949;-62
2021/01/23 00:38:13;;;;;;;8.70;7.80;;;4.30;99.90;;;5.37;100.00;98342.78;5051853;28;20241;-63
2021/01/23 00:40:40;;;;;;;10.63;8.63;;;4.30;99.90;;;5.50;100.00;98339.88;5051694;28;20603;-64
2021/01/23 00:43:08;;;;;;;9.23;8.10;;;4.40;99.90;;;5.31;100.00;98332.22;5051930;28;20203;-64
2021/01/23 00:45:35;;;;;;;8.87;7.97;;;4.30;99.90;;;5.36;100.00;98340.34;5051657;28;20614;-64
2021/01/23 00:48:08;;;;;;;9.13;8.10;;;4.40;99.90;;;5.21;100.00;98340.00;5051682;28;20285;-64
2021/01/23 00:50:36;;;;;;;9.70;8.70;;;4.30;99.90;;;5.27;100.00;98341.72;5051434;28;20198;-64
2021/01/23 00:53:04;;;;;;;9.23;8.10;;;4.20;99.90;;;5.19;100.00;98340.22;5051369;28;20199;-64
2021/01/23 00:55:32;;;;;;;9.67;7.90;;;4.20;99.90;;;5.15;100.00;98341.72;5051896;28;20606;-64
2021/01/23 00:58:00;;;;;;;9.67;8.37;;;4.20;99.90;;;5.36;100.00;98335.00;5051832;28;20287;-63
2021/01/23 01:00:27;;;;;;;9.43;8.20;;;4.20;99.90;;;5.51;100.00;98338.03;5051710;28;20227;-65
2021/01/23 01:02:54;;;;;;;10.93;8.80;;;4.30;99.90;;;5.48;100.00;98333.94;5051687;28;20208;-63
2021/01/23 01:05:22;;;;;;;10.67;8.73;;;4.40;99.90;;;5.41;100.00;98325.25;5051434;28;20203;-66
2021/01/23 01:07:49;;;;;;;9.97;8.87;;;4.40;99.90;;;5.33;100.00;98320.25;5051535;28;20208;-63
2021/01/23 01:10:16;;;;;;;10.60;9.23;;;4.40;99.90;;;5.37;100.00;98320.59;5051248;28;20261;-63
2021/01/23 01:12:44;;;;;;;9.30;8.30;;;4.30;99.90;;;5.25;100.00;98309.09;5051620;28;20303;-64
2021/01/23 01:15:12;;;;;;;9.83;8.57;;;4.30;99.90;;;5.36;100.00;98314.44;5051444;28;20375;-64
2021/01/23 01:17:40;;;;;;;11.40;8.73;;;4.30;99.90;;;5.32;100.00;98310.63;5051602;28;20199;-62
2021/01/23 01:20:10;;;;;;;10.27;9.10;;;4.30;99.90;;;5.06;100.00;98315.59;5050829;28;20679;-63
2021/01/23 01:22:38;;;;;;;10.37;9.10;;;4.20;99.90;;;4.90;100.00;98304.53;5051261;28;20293;-63
2021/01/23 01:25:06;;;;;;;11.40;8.97;;;4.20;99.90;;;5.09;100.00;98310.59;5051428;28;20226;-63
2021/01/23 01:27:34;;;;;;;10.27;8.27;;;4.10;99.90;;;5.06;100.00;98303.06;5051403;28;20214;-63
2021/01/23 01:30:04;;;;;;;9.07;8.13;;;4.10;99.90;;;5.26;100.00;98297.41;5051190;28;20412;-63
2021/01/23 01:32:32;;;;;;;9.57;8.20;;;4.10;99.90;;;5.13;100.00;98301.09;5050373;28;20183;-63
2021/01/23 01:34:59;;;;;;;10.33;9.00;;;4.20;99.90;;;5.14;100.00;98288.56;5030804;28;20241;-64
2021/01/23 01:37:26;;;;;;;9.53;8.33;;;4.20;99.90;;;4.98;100.00;98293.53;5031091;28;20751;-64
2021/01/23 01:39:53;;;;;;;9.90;8.40;;;4.10;99.90;;;5.20;100.00;98295.66;5031306;28;20220;-61
2021/01/23 01:42:21;;;;;;;9.50;8.40;;;4.10;99.90;;;5.28;100.00;98282.78;5031151;28;20218;-63
2021/01/23 01:44:48;;;;;;;10.43;8.90;;;4.20;99.90;;;5.06;100.00;98281.72;5031349;28;20201;-63
2021/01/23 01:47:18;;;;;;;10.93;8.53;;;4.20;99.90;;;5.25;100.00;98285.91;5031242;28;20609;-63
2021/01/23 01:49:46;;;;;;;8.97;7.93;;;4.20;99.90;;;5.15;100.00;98282.19;5030674;28;20733;-62
2021/01/23 01:52:14;;;;;;;9.37;8.13;;;4.20;99.90;;;5.01;100.00;98289.59;5031107;28;20353;-63
2021/01/23 01:54:41;;;;;;;9.97;8.93;;;4.10;99.90;;;5.06;100.00;98292.38;5030908;28;20627;-63
2021/01/23 01:57:09;;;;;;;10.13;8.43;;;4.10;99.90;;;5.14;100.00;98294.72;5031347;28;20632;-64
2021/01/23 01:59:36;;;;;;;11.87;8.60;;;4.10;99.90;;;5.28;100.00;98281.94;5031271;28;20238;-64
2021/01/23 02:02:30;;;;;;;9.73;8.57;;;4.20;99.90;;;5.09;100.00;98297.25;5030547;28;20600;-63
2021/01/23 02:05:05;;;;;;;10.20;8.47;;;4.10;99.90;;;4.91;100.00;98292.00;5014273;28;20205;-64
2021/01/23 02:07:44;;;;;;;10.03;8.93;;;4.10;99.90;;;5.16;100.00;98297.16;5031035;28;20216;-63
2021/01/23 02:10:38;;;;;;;9.53;8.53;;;4.10;99.90;;;5.14;100.00;98305.41;5031317;28;20188;-64
2021/01/23 02:13:21;;;;;;;9.87;8.40;;;4.10;99.90;;;5.16;100.00;98300.63;5031213;28;20222;-63
2021/01/23 02:15:56;;;;;;;9.90;8.73;;;4.20;99.90;;;5.06;100.00;98300.38;5031141;28;20188;-62
2021/01/23 02:18:29;;;;;;;9.87;8.30;;;4.10;99.90;;;4.70;100.00;98304.03;5023165;28;20219;-63
2021/01/23 02:22:04;;;;;;;10.33;8.40;;;4.10;99.90;;;5.01;100.00;98312.81;5021860;28;20295;-64
2021/01/23 02:24:32;;;;;;;10.60;8.07;;;4.00;99.90;;;5.05;100.00;98312.13;5021829;28;20626;-62
2021/01/23 02:27:32;;;;;;;9.43;7.90;;;4.10;99.90;;;5.11;100.00;98316.50;5033827;28;20199;-63
2021/01/23 02:30:13;;;;;;;10.13;8.13;;;4.00;99.90;;;5.05;100.00;98317.44;5033664;28;20245;-63
2021/01/23 02:32:44;;;;;;;9.80;8.33;;;4.00;99.90;;;4.98;100.00;98320.22;5035570;28;20676;-63
2021/01/23 02:35:14;;;;;;;9.80;8.73;;;4.00;99.90;;;5.05;100.00;98317.44;5052686;28;20719;-63
2021/01/23 02:37:43;;;;;;;10.17;8.70;;;4.10;99.90;;;5.09;100.00;98320.47;5053271;28;20237;-62
2021/01/23 02:40:12;;;;;;;9.20;8.00;;;4.10;99.90;;;4.97;100.00;98331.91;5053182;28;20706;-63
2021/01/23 02:42:41;;;;;;;10.33;8.13;;;4.10;99.90;;;4.99;100.00;98321.84;5052809;28;20335;-63
2021/01/23 02:45:10;;;;;;;10.83;8.30;;;4.10;99.90;;;4.85;100.00;98331.06;5053105;28;20241;-63
2021/01/23 02:47:39;;;;;;;10.43;7.97;;;4.00;99.90;;;4.77;100.00;98326.06;5053205;28;20243;-63
2021/01/23 02:50:10;;;;;;;10.27;8.20;;;4.00;99.90;;;5.29;100.00;98323.63;5052494;28;20207;-63
2021/01/23 02:52:55;;;;;;;10.20;8.30;;;4.10;99.90;;;5.32;99.74;98323.16;5052739;28;20188;-62
2021/01/23 02:55:29;;;;;;;9.40;8.00;;;4.20;99.90;;;5.35;98.28;98322.69;5053158;28;20223;-63
2021/01/23 02:58:02;;;;;;;8.50;7.60;;;4.20;99.90;;;5.33;98.88;98325.59;5053044;28;20807;-63
2021/01/23 03:00:32;;;;;;;9.13;7.40;;;4.20;99.90;;;5.70;96.95;98321.63;5052618;28;20227;-63
2021/01/23 03:03:02;;;;;;;10.57;7.87;;;4.40;99.90;;;5.48;97.11;98322.47;5052430;28;20237;-63
2021/01/23 03:05:35;;;;;;;8.83;7.87;;;4.40;99.90;;;5.14;99.26;98326.75;5052809;28;20283;-63
2021/01/23 03:08:03;;;;;;;9.73;7.43;;;4.30;99.90;;;5.38;97.32;98316.91;5052694;28;20191;-63
2021/01/23 03:10:40;;;;;;;11.47;8.10;;;4.40;99.90;;;5.61;97.61;98328.41;5052351;28;20202;-63
2021/01/23 03:13:09;;;;;;;10.37;7.80;;;4.40;99.90;;;5.44;98.35;98326.66;5052838;28;20202;-63
2021/01/23 03:15:37;;;;;;;8.63;7.67;;;4.40;99.90;;;5.22;99.45;98328.25;5052622;28;20370;-63
2021/01/23 03:18:05;;;;;;;9.33;7.53;;;4.30;99.90;;;5.26;99.61;98335.56;5052319;28;20262;-63
2021/01/23 03:20:34;;;;;;;10.23;8.03;;;4.30;99.90;;;5.47;99.19;98326.19;5052576;28;20199;-64
2021/01/23 03:23:03;;;;;;;9.77;8.27;;;4.30;99.90;;;5.28;99.30;98328.16;5051962;28;20609;-63
2021/01/23 03:25:31;;;;;;;11.30;8.33;;;4.30;99.90;;;5.57;97.92;98321.06;5052467;28;20593;-63
2021/01/23 03:28:00;;;;;;;9.43;7.80;;;4.40;99.90;;;5.41;99.16;98319.13;5052412;28;20565;-63
2021/01/23 03:30:29;;;;;;;9.50;7.93;;;4.40;99.90;;;5.19;100.00;98321.53;5052012;28;20207;-63
2021/01/23 03:32:57;;;;;;;9.13;7.93;;;4.30;99.90;;;5.15;100.00;98315.03;5047395;28;20279;-63
2021/01/23 03:35:25;;;;;;;9.80;7.40;;;4.30;99.90;;;5.28;100.00;98308.63;5031611;28;20290;-64
2021/01/23 03:37:54;;;;;;;9.83;7.80;;;4.30;99.90;;;5.46;99.33;98320.03;5031967;28;20251;-64
2021/01/23 03:40:21;;;;;;;9.17;7.77;;;4.30;99.90;;;5.30;99.72;98309.22;5032069;28;20229;-64
2021/01/23 03:42:48;;;;;;;8.50;7.50;;;4.30;99.90;;;5.26;99.20;98310.75;5032189;28;20228;-64
2021/01/23 03:45:16;;;;;;;10.60;7.47;;;4.30;99.90;;;4.93;100.00;98306.75;5032197;28;20263;-64
2021/01/23 03:47:44;;;;;;;10.03;8.40;;;4.30;99.90;;;5.10;100.00;98308.75;5032054;28;20290;-64
2021/01/23 03:50:12;;;;;;;12.73;9.13;;;4.20;99.90;;;5.03;100.00;98303.53;5032146;28;20611;-64
2021/01/23 03:52:40;;;;;;;12.57;8.90;;;4.10;99.90;;;5.19;100.00;98302.84;5031816;28;20245;-64
2021/01/23 03:55:10;;;;;;;10.87;8.63;;;4.20;99.90;;;5.15;100.00;98282.19;5031943;28;20287;-64
2021/01/23 03:57:37;;;;;;;11.47;8.70;;;4.20;99.90;;;5.02;100.00;98283.22;5032233;28;20307;-64
2021/01/23 04:00:07;;;;;;;12.83;9.67;;;4.10;99.90;;;5.07;100.00;98282.53;5031851;28;20240;-64
2021/01/23 04:02:35;;;;;;;13.00;10.03;;;4.10;99.90;;;5.01;100.00;98283.47;5031017;28;20271;-64
2021/01/23 04:05:05;;;;;;;12.57;10.27;;;4.10;99.90;;;4.89;100.00;98278.91;5031670;28;20264;-64
2021/01/23 04:07:33;;;;;;;12.73;9.93;;;4.00;99.90;;;4.90;100.00;98275.19;5031296;28;20294;-64
2021/01/23 04:10:00;;;;;;;12.23;9.60;;;4.00;99.90;;;4.82;100.00;98270.19;5031413;28;20719;-64
2021/01/23 04:12:32;;;;;;;12.57;10.67;;;4.00;99.90;;;4.86;100.00;98274.03;5031458;28;20636;-64
2021/01/23 04:14:59;;;;;;;14.73;10.27;;;3.90;99.90;;;4.85;100.00;98264.41;5031717;28;20249;-65
2021/01/23 04:17:27;;;;;;;12.53;9.70;;;3.90;99.90;;;4.83;100.00;98258.50;5031271;28;20261;-64
2021/01/23 04:19:55;;;;;;;13.47;10.30;;;3.90;99.90;;;4.75;100.00;98263.34;5031808;28;20249;-63
2021/01/23 04:22:22;;;;;;;13.13;10.10;;;3.90;99.90;;;4.65;100.00;98263.09;5030958;28;20230;-64
2021/01/23 04:24:50;;;;;;;13.57;10.33;;;3.80;99.90;;;4.73;100.00;98258.25;5031320;28;20200;-64
2021/01/23 04:27:17;;;;;;;14.83;10.73;;;3.80;99.90;;;4.58;100.00;98241.84;5031135;28;20247;-64
2021/01/23 04:29:47;;;;;;;11.87;9.77;;;3.70;99.90;;;4.72;100.00;98242.47;5031318;28;20232;-63
2021/01/23 04:32:14;;;;;;;13.70;10.10;;;3.80;99.90;;;4.72;100.00;98256.59;5030641;28;20704;-63
2021/01/23 04:34:41;;;;;;;14.43;9.63;;;3.80;99.90;;;4.67;100.00;98253.00;5049489;28;20244;-64
2021/01/23 04:37:09;;;;;;;12.80;9.33;;;3.70;99.90;;;4.57;100.00;98239.41;5050950;28;20282;-65
2021/01/23 04:39:36;;;;;;;13.10;9.43;;;3.70;99.90;;;4.68;100.00;98252.78;5051082;28;20724;-65
2021/01/23 04:42:07;;;;;;;12.10;10.10;;;3.70;99.90;;;4.37;100.00;98233.56;5050951;28;20229;-64
2021/01/23 04:44:35;;;;;;;12.37;9.63;;;3.60;99.90;;;4.51;100.00;98241.16;5050693;28;20193;-63
2021/01/23 04:47:04;;;;;;;13.97;9.83;;;3.60;99.90;;;4.52;100.00;98252.63;5049760;28;20726;-64
2021/01/23 04:49:33;;;;;;;13.00;9.47;;;3.60;99.90;;;4.23;100.00;98259.59;5050978;28;20205;-63
2021/01/23 04:52:04;;;;;;;13.50;9.60;;;3.60;99.90;;;4.43;100.00;98246.78;5050520;28;20244;-64
2021/01/23 04:54:32;;;;;;;11.37;8.80;;;3.50;99.90;;;4.42;100.00;98241.69;5050708;28;20193;-64
2021/01/23 04:57:01;;;;;;;14.57;9.83;;;3.50;99.90;;;4.42;100.00;98242.53;5050713;28;20193;-63
2021/01/23 04:59:30;;;;;;;12.50;8.87;;;3.50;99.90;;;4.46;100.00;98248.22;5050879;28;20202;-63
2021/01/23 05:02:21;;;;;;;12.40;8.73;;;3.50;99.90;;;4.36;100.00;98251.44;5050315;28;20229;-63
2021/01/23 05:04:55;;;;;;;11.07;8.27;;;3.50;99.90;;;4.23;100.00;98258.81;5051042;28;20200;-63
2021/01/23 05:07:30;;;;;;;11.57;8.37;;;3.40;99.90;;;4.12;100.00;98260.38;5050422;28;20219;-62
2021/01/23 05:10:12;;;;;;;12.87;8.73;;;3.30;99.90;;;4.12;100.00;98257.72;5050404;28;20228;-64
2021/01/23 05:12:42;;;;;;;11.83;8.47;;;3.30;99.90;;;3.98;100.00;98263.41;5050422;28;20177;-64
2021/01/23 05:15:13;;;;;;;13.10;8.83;;;3.20;99.90;;;4.11;100.00;98269.38;5050765;28;20218;-63
2021/01/23 05:17:50;;;;;;;12.50;8.67;;;3.20;99.90;;;4.09;100.00;98268.81;5050340;28;20245;-64
2021/01/23 05:20:31;;;;;;;10.77;8.10;;;3.20;99.90;;;4.10;100.00;98272.28;5050342;28;20201;-64
2021/01/23 05:22:59;;;;;;;11.27;8.10;;;3.20;99.90;;;3.99;100.00;98281.03;5050316;28;20277;-64
2021/01/23 05:25:28;;;;;;;11.47;8.13;;;3.20;99.90;;;3.88;100.00;98276.44;5050620;28;20208;-64
2021/01/23 05:27:55;;;;;;;10.80;7.50;;;3.10;99.90;;;4.03;100.00;98284.88;5050157;28;20283;-64
2021/01/23 05:30:24;;;;;;;10.67;7.30;;;3.10;99.90;;;4.02;100.00;98288.56;5050127;28;20672;-64
2021/01/23 05:33:07;;;;;;;12.97;7.17;;;3.10;99.90;;;3.93;100.00;98285.41;5046294;28;20240;-64
2021/01/23 05:35:37;;;;;;;11.60;6.33;;;3.10;99.90;;;3.74;100.00;98286.44;5030132;28;20785;-63
2021/01/23 05:38:22;;;;;;;9.33;6.10;;;3.00;99.90;;;3.75;100.00;98280.09;5030208;28;20233;-62
2021/01/23 05:40:56;;;;;;;9.10;6.27;;;2.90;99.90;;;3.51;100.00;98294.28;5030235;28;20186;-62
2021/01/23 05:43:36;;;;;;;8.60;6.43;;;2.80;99.90;;;3.64;100.00;98305.59;5030144;28;20268;-63
2021/01/23 05:46:06;;;;;;;10.90;7.63;;;2.80;99.90;;;3.47;100.00;98301.06;5030234;28;20237;-63
2021/01/23 05:48:39;;;;;;;9.97;7.27;;;2.70;99.90;;;3.43;100.00;98299.91;5030322;28;20186;-63
2021/01/23 05:51:07;;;;;;;11.07;7.70;;;2.70;99.90;;;3.31;100.00;98306.97;5030394;28;20218;-63
2021/01/23 05:53:35;;;;;;;9.90;6.90;;;2.60;99.90;;;3.37;100.00;98303.41;5030309;28;20202;-63
2021/01/23 05:56:04;;;;;;;10.63;7.57;;;2.50;99.90;;;3.12;100.00;98308.78;5030139;28;20297;-63
2021/01/23 05:58:34;;;;;;;11.53;7.70;;;2.40;99.90;;;3.02;100.00;98310.28;5033686;28;20221;-63
2021/01/23 06:01:05;;;;;;;10.77;8.10;;;2.30;99.90;;;2.95;100.00;98328.97;5033681;28;20290;-63
2021/01/23 06:03:38;;;;;;;12.23;8.03;;;2.20;99.90;;;3.03;100.00;98327.84;5033863;28;20187;-62
2021/01/23 06:06:05;;;;;;;10.63;7.70;;;2.10;99.90;;;2.95;100.00;98338.78;5033989;28;20277;-62
2021/01/23 06:08:41;;;;;;;13.57;8.00;;;2.10;99.90;;;3.04;100.00;98340.97;5033889;28;20201;-62
2021/01/23 06:11:39;;;;;;;11.37;7.83;;;2.20;99.90;;;2.68;100.00;98355.94;5034018;28;20225;-62
2021/01/23 06:14:06;;;;;;;9.47;7.20;;;1.90;99.90;;;2.76;100.00;98353.03;5034060;28;20236;-62
2021/01/23 06:16:39;;;;;;;10.10;7.30;;;1.90;99.90;;;2.43;100.00;98348.72;5033442;28;20276;-62
2021/01/23 06:19:42;;;;;;;11.10;7.90;;;1.80;99.90;;;2.71;100.00;98353.66;5033730;28;20610;-62
2021/01/23 06:22:13;;;;;;;11.00;7.73;;;1.80;99.90;;;2.47;100.00;98354.41;5032366;28;20222;-63
2021/01/23 06:24:57;;;;;;;10.30;7.40;;;1.70;99.90;;;2.15;100.00;98361.50;5033659;28;20276;-62
2021/01/23 06:27:49;;;;;;;9.83;7.30;;;1.60;99.90;;;2.38;100.00;98361.00;5034560;28;20210;-63
2021/01/23 06:30:31;;;;;;;11.03;8.80;;;1.60;99.90;;;2.35;100.00;98366.75;5028454;28;20230;-63
2021/01/23 06:32:59;;;;;;;10.47;7.50;;;1.60;99.90;;;2.38;100.00;98371.63;5039088;28;20240;-63
2021/01/23 06:35:27;;;;;;;9.53;7.37;;;1.60;99.90;;;2.25;100.00;98380.47;5053918;28;20233;-63
2021/01/23 06:38:13;;;;;;;11.37;8.80;;;1.60;99.90;;;2.25;100.00;98375.16;5053831;28;20490;-63
2021/01/23 06:40:40;;;;;;;12.07;7.93;;;1.50;99.90;;;2.21;100.00;98381.09;5053962;28;20232;-63
2021/01/23 06:43:08;;;;;;;12.47;8.50;;;1.50;99.90;;;2.46;100.00;98376.69;5054156;28;20716;-62
2021/01/23 06:45:37;;;;;;;11.47;8.10;;;1.50;99.90;;;2.26;100.00;98368.84;5054223;28;20237;-62
2021/01/23 06:48:05;;;;;;;12.67;9.10;;;1.50;99.90;;;1.99;100.00;98375.25;5054134;28;20271;-62
2021/01/23 06:50:39;;;;;;;11.03;8.63;;;1.30;99.90;;;2.25;100.00;98367.19;5053979;28;20665;-63
2021/01/23 06:53:21;;;;;;;11.63;8.70;;;1.40;99.90;;;2.40;100.00;98373.03;5053757;28;20186;-62
2021/01/23 06:55:54;;;;;;;11.77;8.43;;;1.50;99.90;;;2.09;100.00;98378.28;5053873;28;20597;-62
2021/01/23 06:58:24;;;;;;;12.67;9.03;;;1.40;99.90;;;2.53;100.00;98376.66;5054238;28;20191;-62
2021/01/23 07:00:55;;;;;;;14.10;10.30;;;1.50;99.90;;;2.65;100.00;98383.75;5053965;28;20189;-62
2021/01/23 07:03:23;;;;;;;14.17;9.93;;;1.60;99.90;;;2.35;100.00;98385.34;5053900;28;20205;-62
2021/01/23 07:05:55;;;;;;;14.80;10.97;;;1.60;99.90;;;2.32;100.00;98391.88;5053709;28;20235;-62
2021/01/23 07:08:28;;;;;;;15.27;10.67;;;1.60;99.90;;;2.40;100.00;98388.19;5052971;28;20190;-62
2021/01/23 07:11:14;;;;;;;15.17;11.43;;;1.50;99.90;;;2.56;100.00;98397.50;5053890;28;20181;-63
2021/01/23 07:14:01;;;;;;;15.63;11.57;;;1.60;99.90;;;2.45;100.00;98407.75;5053407;28;20649;-63
2021/01/23 07:16:31;;;;;;;15.63;11.80;;;1.50;99.90;;;2.44;100.00;98400.00;5053824;28;20186;-62
2021/01/23 07:19:02;;;;;;;16.17;11.77;;;1.50;99.90;;;2.61;100.00;98400.31;5053715;28;20205;-62
2021/01/23 07:21:34;;;;;;;16.43;11.83;;;1.60;99.90;;;2.56;100.00;98397.50;5053357;28;20237;-62
2021/01/23 07:24:03;;;;;;;16.37;11.23;;;1.70;99.90;;;2.47;100.00;98402.22;5053398;28;20235;-61
2021/01/23 07:26:31;;;;;;;15.17;11.67;;;1.60;99.90;;;2.59;100.00;98399.75;5053269;28;20299;-62
2021/01/23 07:28:59;;;;;;;17.23;12.47;;;1.70;99.90;;;2.47;100.00;98392.44;5053472;28;20205;-62
2021/01/23 07:31:29;;;;;;;17.17;11.90;;;1.60;99.90;;;2.28;100.00;98400.50;5053469;28;20212;-63
2021/01/23 07:33:59;;;;;;;14.70;11.20;;;1.60;99.90;;;2.73;100.00;98391.47;5040358;28;20233;-63
2021/01/23 07:36:36;;;;;;;15.17;11.17;;;1.60;99.90;;;2.41;100.00;98393.28;5033171;28;20302;-63
2021/01/23 07:39:14;;;;;;;12.33;10.13;;;1.60;99.90;;;2.37;100.00;98389.41;5032761;28;20252;-62
2021/01/23 07:41:48;;;;;;;14.03;10.50;;;1.60;99.90;;;2.37;100.00;98389.41;5033230;28;20506;-63
2021/01/23 07:44:16;;;;;;;13.90;10.63;;;1.50;99.90;;;2.31;100.00;98392.91;5033139;28;20232;-63
2021/01/23 07:46:46;;;;;;;13.77;10.50;;;1.50;99.90;;;2.21;100.00;98389.91;5032940;28;20678;-62
2021/01/23 07:49:23;;;;;;;14.73;10.70;;;1.40;99.90;;;2.24;100.00;98378.03;5032832;28;20697;-62
2021/01/23 07:51:52;;;;;;;13.37;10.20;;;1.40;99.90;;;2.66;100.00;98376.59;5032997;28;20245;-62
2021/01/23 07:54:19;;;;;;;13.27;10.27;;;1.60;99.90;;;2.70;100.00;98380.44;5032923;28;20256;-62
2021/01/23 07:56:56;;;;;;;12.87;9.83;;;1.60;99.90;;;2.69;100.00;98378.84;5032578;28;20233;-62
2021/01/23 07:59:41;;;;;;;13.57;10.47;;;1.70;99.90;;;2.74;100.00;98385.13;5033420;28;20349;-63
2021/01/23 08:02:09;;;;;;;13.83;10.27;;;1.70;99.90;;;2.90;100.00;98389.13;5033091;28;20659;-63
2021/01/23 08:04:38;;;;;;;13.53;9.40;;;1.80;99.90;;;2.70;100.00;98393.75;5032608;28;20208;-62
2021/01/23 08:07:27;;;;;;;12.37;9.63;;;1.80;99.90;;;2.76;100.00;98388.38;5032268;28;20198;-65
2021/01/23 08:10:10;;;;;;;13.73;10.20;;;1.80;99.90;;;2.56;100.00;98389.50;5032742;28;20202;-63
2021/01/23 08:12:40;;;;;;;13.20;9.93;;;1.70;99.90;;;2.77;100.00;98379.41;5032836;28;20269;-62
2021/01/23 08:15:11;;;;;;;12.77;10.40;;;1.70;99.90;;;2.78;100.00;98386.34;5032354;28;20225;-62
2021/01/23 08:17:43;;;;;;;13.97;9.73;;;1.80;99.90;;;2.93;100.00;98391.34;5032768;28;20191;-62
2021/01/23 08:20:14;;;;;;;12.43;9.80;;;1.90;99.90;;;2.85;100.00;98396.94;5032236;28;20195;-63
2021/01/23 08:23:10;;;;;;;13.87;9.93;;;1.90;99.90;;;3.06;100.00;98389.41;5032005;28;20758;-63
2021/01/23 08:25:45;;;;;;;11.67;9.27;;;1.90;99.90;;;2.78;100.00;98398.81;5032235;28;20222;-63
2021/01/23 08:28:15;;;;;;;12.80;9.33;;;1.90;99.90;;;2.85;100.00;98388.94;5032573;28;20178;-63
2021/01/23 08:30:42;;;;;;;12.03;9.70;;;1.90;99.90;;;2.98;100.00;98397.66;5032392;28;20281;-63
2021/01/23 08:33:12;;;;;;;12.07;9.50;;;1.90;99.90;;;2.94;100.00;98400.97;5038341;28;20259;-62
2021/01/23 08:35:42;;;;;;;11.43;8.50;;;1.90;99.90;;;2.83;100.00;98393.66;5052039;28;20195;-62
2021/01/23 08:38:10;;;;;;;12.53;9.70;;;1.90;99.90;;;3.02;100.00;98387.41;5051953;28;20211;-62
2021/01/23 08:40:39;;;;;;;13.00;9.80;;;1.90;99.90;;;3.06;100.00;98380.63;5051745;28;20228;-62
2021/01/23 08:43:06;;;;;;;11.73;9.23;;;2.00;99.90;;;3.13;100.00;98382.19;5051634;28;20236;-62
2021/01/23 08:45:34;;;;;;;12.50;9.27;;;2.00;99.90;;;3.22;100.00;98388.91;5051910;28;20233;-63
2021/01/23 08:48:01;;;;;;;12.13;9.27;;;2.10;99.90;;;3.18;100.00;98392.22;5052074;28;20201;-62
2021/01/23 08:50:29;;;;;;;13.87;9.43;;;2.10;99.90;;;3.02;100.00;98403.38;5051499;28;20570;-63
2021/01/23 08:52:57;;;;;;;12.13;9.27;;;2.10;99.90;;;3.01;100.00;98391.91;5051273;28;20244;-63
2021/01/23 08:55:25;;;;;;;12.37;9.50;;;2.00;99.90;;;2.80;100.00;98404.72;5051665;28;20233;-63
2021/01/23 08:57:52;;;;;;;11.47;9.00;;;1.90;99.90;;;2.70;100.00;98402.53;5051552;28;20241;-63
2021/01/23 09:00:20;;;;;;;12.93;9.90;;;1.90;99.90;;;3.08;100.00;98397.19;5052132;28;20205;-63
2021/01/23 09:02:48;;;;;;;15.73;10.07;;;1.90;99.90;;;3.22;100.00;98396.06;5051305;28;20264;-63
2021/01/23 09:05:15;;;;;;;12.33;9.43;;;2.10;99.90;;;2.85;100.00;98410.22;5051710;28;20202;-63
2021/01/23 09:07:42;;;;;;;14.30;9.77;;;2.10;99.90;;;3.12;100.00;98406.34;5051302;28;20629;-62
2021/01/23 09:10:12;;;;;;;15.47;11.00;;;2.00;99.90;;;3.07;100.00;98411.50;5051193;28;20257;-62
2021/01/23 09:12:41;;;;;;;14.60;10.67;;;2.10;99.90;;;3.27;100.00;98402.38;5039723;28;20216;-63
2021/01/23 09:15:10;;;;;;;16.53;12.13;;;2.10;99.90;;;3.20;100.00;98406.09;5031541;28;20213;-63
2021/01/23 09:17:38;;;;;;;15.43;11.17;;;2.10;99.90;;;3.33;100.00;98404.16;5031688;28;20241;-62
2021/01/23 09:20:09;;;;;;;15.63;11.03;;;2.20;99.90;;;3.49;100.00;98406.28;5031121;28;20232;-63
2021/01/23 09:22:36;;;;;;;14.60;10.60;;;2.30;99.90;;;3.55;100.00;98409.94;5030956;28;20616;-63
2021/01/23 09:25:05;;;;;;;15.80;11.37;;;2.40;99.90;;;3.62;100.00;98411.47;5031532;28;20198;-63
2021/01/23 09:27:33;;;;;;;15.33;11.83;;;2.40;99.90;;;3.59;100.00;98408.44;5030917;28;20198;-63
2021/01/23 09:30:01;;;;;;;17.70;12.33;;;2.40;99.90;;;3.56;100.00;98409.72;5033270;28;20213;-63
2021/01/23 09:32:30;;;;;;;17.60;11.60;;;2.40;99.90;;;3.40;100.00;98412.91;5036523;28;20202;-63
2021/01/23 09:34:57;;;;;;;18.43;12.47;;;2.40;99.90;;;3.54;100.00;98406.44;5056764;28;20239;-62
2021/01/23 09:37:25;;;;;;;17.93;12.47;;;2.40;99.90;;;3.56;100.00;98415.03;5055942;28;20263;-62
2021/01/23 09:39:52;;;;;;;18.37;12.90;;;2.40;99.90;;;3.52;100.00;98407.69;5055205;28;20439;-62
2021/01/23 09:42:19;;;;;;;16.93;12.23;;;2.40;99.90;;;3.62;100.00;98411.47;5054462;28;20286;-62
2021/01/23 09:44:47;;;;;;;17.30;12.97;;;2.50;99.90;;;3.71;100.00;98407.53;5055516;28;20273;-63
2021/01/23 09:47:15;;;;;;;18.00;13.03;;;2.50;99.90;;;3.65;100.00;98402.25;5054679;28;20205;-63
2021/01/23 09:49:43;;;;;;;19.83;13.63;;;2.50;99.90;;;3.66;100.00;98401.22;5054836;28;20205;-63
2021/01/23 09:52:10;;;;;;;19.20;13.33;;;2.50;99.90;;;3.83;100.00;98396.13;5054742;28;20258;-62
2021/01/23 09:54:37;;;;;;;20.03;13.53;;;2.60;99.90;;;3.81;100.00;98399.00;5054632;28;20263;-62
2021/01/23 09:57:06;;;;;;;19.97;13.67;;;2.60;99.90;;;3.85;100.00;98388.75;5054686;28;20244;-62
2021/01/23 09:59:34;;;;;;;18.93;12.57;;;2.70;99.90;;;3.91;100.00;98393.22;5054561;28;20247;-63
2021/01/23 10:02:02;;;;;;;18.07;13.30;;;2.70;99.90;;;3.98;100.00;98377.94;5054949;28;20225;-64
2021/01/23 10:04:31;;;;;;;18.50;13.20;;;2.80;99.90;;;3.99;100.00;98377.72;5054819;28;20225;-62
2021/01/23 10:06:58;;;;;;;17.17;12.03;;;2.80;99.90;;;4.03;100.00;98375.44;5054593;28;20216;-63
2021/01/23 10:09:26;;;;;;;18.63;12.63;;;2.80;99.90;;;4.27;100.00;98367.38;5054920;28;20243;-63
2021/01/23 10:11:54;;;;;;;18.83;12.80;;;2.90;99.90;;;4.17;100.00;98375.06;5054577;28;20213;-58
2021/01/23 10:14:22;;;;;;;18.30;12.93;;;2.90;99.90;;;4.28;100.00;98366.31;5039328;28;20202;-59
2021/01/23 10:16:49;;;;;;;21.77;13.23;;;3.00;99.90;;;4.28;100.00;98370.84;5034394;28;20227;-59
2021/01/23 10:19:17;;;;;;;20.77;13.60;;;3.10;99.90;;;4.16;100.00;98376.09;5034056;28;20205;-59
2021/01/23 10:21:45;;;;;;;16.60;12.63;;;3.00;99.90;;;4.01;100.00;98380.19;5034237;28;20284;-58
2021/01/23 10:24:12;;;;;;;18.03;12.30;;;3.00;99.90;;;4.11;100.00;98381.28;5030015;28;20190;-58
2021/01/23 10:26:40;;;;;;;19.53;12.80;;;3.00;99.90;;;4.08;100.00;98383.56;5022107;28;20199;-59
2021/01/23 10:29:07;;;;;;;18.23;11.57;;;3.00;99.90;;;3.98;100.00;98376.09;5014231;28;20212;-62
2021/01/23 10:31:35;;;;;;;19.50;12.13;;;3.00;99.90;;;3.87;100.00;98379.50;5014805;28;20206;-62
2021/01/23 10:34:02;;;;;;;19.47;12.57;;;2.90;99.90;;;3.99;100.00;98377.72;5041710;28;20253;-61
2021/01/23 10:36:29;;;;;;;19.60;13.00;;;2.90;99.90;;;4.18;100.00;98376.69;5054956;28;20255;-61